Back to Top

Language: 

My Weather Underground Personal Weather Station Historical Data with Graphs...

Delerius Weather Station Historical Data
Daily Summary for March 25, 2017 Units:  Both    English   Metric
« Previous Day
Next Day »
Daily Weekly Monthly Yearly Custom
  High: Low: Average:
Temperature: 60.4 °F /  15.8 °C 28.0 °F /  -2.2 °C 43.7 °F /  6.5 °C
Dew Point: 39.8 °F /  4.3 °C 25.2 °F /  -3.8 °C 30.6 °F /  -0.8 °C
Humidity: 97 % 26 % 66 %
Wind Speed: 5.0 mph /  8 km/h - 1 mph /  1.6 km/h
Wind Gust: 15.0 mph /  24.1 km/h - -
Wind:- - East
Pressure: 30.60 in /  1036.1 hPa 30.38 in /  1028.7 hPa -
Precipitation: 0.00 in /  0 mm    
Historical Graphs
 
 
Tabular Data for March 25, 2017
Time Temperature Dew Point Pressure Wind Wind Speed Wind Gust Humidity Rainfall Rate (Hourly) solar Conditions
00:00 33.3 °F /  0.7 °C 30.6 °F /  -0.8 °C 30.60 in /  1036.1 hPa Calm     90 % 0.00 in /  0 mm 0 W/m2
00:05 33.1 °F /  0.6 °C 30.5 °F /  -0.8 °C 30.60 in /  1036.1 hPa Calm     90 % 0.00 in /  0 mm 0 W/m2
00:11 33.1 °F /  0.6 °C 30.5 °F /  -0.8 °C 30.59 in /  1035.8 hPa Calm     90 % 0.00 in /  0 mm 0 W/m2
00:16 32.9 °F /  0.5 °C 30.3 °F /  -0.9 °C 30.60 in /  1036.1 hPa Calm     90 % 0.00 in /  0 mm 0 W/m2
00:21 32.7 °F /  0.4 °C 30.1 °F /  -1.1 °C 30.59 in /  1035.8 hPa Calm     90 % 0.00 in /  0 mm 0 W/m2
00:26 32.5 °F /  0.3 °C 30.2 °F /  -1 °C 30.60 in /  1036.1 hPa Calm     91 % 0.00 in /  0 mm 0 W/m2
00:31 32.5 °F /  0.3 °C 29.9 °F /  -1.2 °C 30.60 in /  1036.1 hPa Calm     90 % 0.00 in /  0 mm 0 W/m2
00:36 32.4 °F /  0.2 °C 29.8 °F /  -1.2 °C 30.59 in /  1035.8 hPa Calm   1.0 mph /  1.6 km/h 90 % 0.00 in /  0 mm 0 W/m2
00:41 32.2 °F /  0.1 °C 29.6 °F /  -1.3 °C 30.59 in /  1035.8 hPa Calm   1.0 mph /  1.6 km/h 90 % 0.00 in /  0 mm 0 W/m2
00:46 32.0 °F /  0 °C 29.4 °F /  -1.4 °C 30.59 in /  1035.8 hPa Calm   1.0 mph /  1.6 km/h 90 % 0.00 in /  0 mm 0 W/m2
00:51 31.8 °F /  -0.1 °C 29.2 °F /  -1.6 °C 30.59 in /  1035.8 hPa Calm   1.0 mph /  1.6 km/h 90 % 0.00 in /  0 mm 0 W/m2
00:56 31.6 °F /  -0.2 °C 29.3 °F /  -1.5 °C 30.59 in /  1035.8 hPa Calm     91 % 0.00 in /  0 mm 0 W/m2
00:58 31.6 °F /  -0.2 °C 29.3 °F /  -1.5 °C 30.59 in /  1035.8 hPa Calm     91 % 0.00 in /  0 mm 0 W/m2
01:03 31.6 °F /  -0.2 °C 29.3 °F /  -1.5 °C 30.59 in /  1035.8 hPa Calm     91 % 0.00 in /  0 mm 0 W/m2
01:08 31.6 °F /  -0.2 °C 29.3 °F /  -1.5 °C 30.59 in /  1035.8 hPa Calm     91 % 0.00 in /  0 mm 0 W/m2
01:13 31.5 °F /  -0.3 °C 29.1 °F /  -1.6 °C 30.59 in /  1035.8 hPa Calm     91 % 0.00 in /  0 mm 0 W/m2
01:18 31.5 °F /  -0.3 °C 29.4 °F /  -1.4 °C 30.59 in /  1035.8 hPa Calm     92 % 0.00 in /  0 mm 0 W/m2
01:23 31.3 °F /  -0.4 °C 29.0 °F /  -1.7 °C 30.59 in /  1035.8 hPa Calm     91 % 0.00 in /  0 mm 0 W/m2
01:28 31.3 °F /  -0.4 °C 29.2 °F /  -1.6 °C 30.59 in /  1035.8 hPa Calm     92 % 0.00 in /  0 mm 0 W/m2
01:33 31.3 °F /  -0.4 °C 29.2 °F /  -1.6 °C 30.59 in /  1035.8 hPa Calm     92 % 0.00 in /  0 mm 0 W/m2
01:34 31.5 °F /  -0.3 °C 29.4 °F /  -1.4 °C 30.59 in /  1035.8 hPa Calm     92 % 0.00 in /  0 mm 0 W/m2
01:39 31.3 °F /  -0.4 °C 29.2 °F /  -1.6 °C 30.59 in /  1035.8 hPa Calm     92 % 0.00 in /  0 mm 0 W/m2
01:44 31.1 °F /  -0.5 °C 29.0 °F /  -1.7 °C 30.59 in /  1035.8 hPa Calm     92 % 0.00 in /  0 mm 0 W/m2
01:49 30.9 °F /  -0.6 °C 28.9 °F /  -1.7 °C 30.58 in /  1035.4 hPa Calm   1.0 mph /  1.6 km/h 92 % 0.00 in /  0 mm 0 W/m2
01:54 30.9 °F /  -0.6 °C 28.9 °F /  -1.7 °C 30.58 in /  1035.4 hPa Calm   1.0 mph /  1.6 km/h 92 % 0.00 in /  0 mm 0 W/m2
01:59 30.9 °F /  -0.6 °C 28.9 °F /  -1.7 °C 30.58 in /  1035.4 hPa Calm   1.0 mph /  1.6 km/h 92 % 0.00 in /  0 mm 0 W/m2
02:04 30.7 °F /  -0.7 °C 28.7 °F /  -1.8 °C 30.58 in /  1035.4 hPa Calm     92 % 0.00 in /  0 mm 0 W/m2
02:09 30.7 °F /  -0.7 °C 28.7 °F /  -1.8 °C 30.58 in /  1035.4 hPa Calm     92 % 0.00 in /  0 mm 0 W/m2
02:14 30.6 °F /  -0.8 °C 28.5 °F /  -1.9 °C 30.58 in /  1035.4 hPa Calm     92 % 0.00 in /  0 mm 0 W/m2
02:19 30.4 °F /  -0.9 °C 28.3 °F /  -2.1 °C 30.58 in /  1035.4 hPa Calm     92 % 0.00 in /  0 mm 0 W/m2
02:24 30.4 °F /  -0.9 °C 28.6 °F /  -1.9 °C 30.58 in /  1035.4 hPa Calm     93 % 0.00 in /  0 mm 0 W/m2
02:29 30.4 °F /  -0.9 °C 28.6 °F /  -1.9 °C 30.58 in /  1035.4 hPa Calm   2.0 mph /  3.2 km/h 93 % 0.00 in /  0 mm 0 W/m2
02:34 30.4 °F /  -0.9 °C 28.6 °F /  -1.9 °C 30.57 in /  1035.1 hPa Calm   2.0 mph /  3.2 km/h 93 % 0.00 in /  0 mm 0 W/m2
02:39 30.2 °F /  -1 °C 28.4 °F /  -2 °C 30.57 in /  1035.1 hPa Calm   1.0 mph /  1.6 km/h 93 % 0.00 in /  0 mm 0 W/m2
02:44 30.0 °F /  -1.1 °C 28.2 °F /  -2.1 °C 30.57 in /  1035.1 hPa Calm   1.0 mph /  1.6 km/h 93 % 0.00 in /  0 mm 0 W/m2
02:49 30.0 °F /  -1.1 °C 28.2 °F /  -2.1 °C 30.57 in /  1035.1 hPa Calm   1.0 mph /  1.6 km/h 93 % 0.00 in /  0 mm 0 W/m2
02:54 30.0 °F /  -1.1 °C 28.2 °F /  -2.1 °C 30.57 in /  1035.1 hPa Calm     93 % 0.00 in /  0 mm 0 W/m2
02:59 30.0 °F /  -1.1 °C 28.2 °F /  -2.1 °C 30.57 in /  1035.1 hPa Calm   1.0 mph /  1.6 km/h 93 % 0.00 in /  0 mm 0 W/m2
03:04 30.0 °F /  -1.1 °C 28.2 °F /  -2.1 °C 30.57 in /  1035.1 hPa Calm   1.0 mph /  1.6 km/h 93 % 0.00 in /  0 mm 0 W/m2
03:05 30.0 °F /  -1.1 °C 28.2 °F /  -2.1 °C 30.57 in /  1035.1 hPa Calm   1.0 mph /  1.6 km/h 93 % 0.00 in /  0 mm 0 W/m2
03:10 29.8 °F /  -1.2 °C 28.1 °F /  -2.2 °C 30.57 in /  1035.1 hPa Calm     93 % 0.00 in /  0 mm 0 W/m2
03:15 29.8 °F /  -1.2 °C 28.1 °F /  -2.2 °C 30.57 in /  1035.1 hPa Calm     93 % 0.00 in /  0 mm 0 W/m2
03:20 29.8 °F /  -1.2 °C 28.1 °F /  -2.2 °C 30.57 in /  1035.1 hPa Calm     93 % 0.00 in /  0 mm 0 W/m2
03:25 29.7 °F /  -1.3 °C 27.9 °F /  -2.3 °C 30.56 in /  1034.8 hPa Calm     93 % 0.00 in /  0 mm 0 W/m2
03:30 29.7 °F /  -1.3 °C 27.9 °F /  -2.3 °C 30.56 in /  1034.8 hPa Calm     93 % 0.00 in /  0 mm 0 W/m2
03:35 29.5 °F /  -1.4 °C 27.7 °F /  -2.4 °C 30.56 in /  1034.8 hPa Calm     93 % 0.00 in /  0 mm 0 W/m2
03:40 29.5 °F /  -1.4 °C 28.0 °F /  -2.2 °C 30.56 in /  1034.8 hPa Calm   1.0 mph /  1.6 km/h 94 % 0.00 in /  0 mm 0 W/m2
03:45 29.5 °F /  -1.4 °C 27.7 °F /  -2.4 °C 30.56 in /  1034.8 hPa Calm   1.0 mph /  1.6 km/h 93 % 0.00 in /  0 mm 0 W/m2
03:50 29.5 °F /  -1.4 °C 27.7 °F /  -2.4 °C 30.56 in /  1034.8 hPa Calm   1.0 mph /  1.6 km/h 93 % 0.00 in /  0 mm 0 W/m2
03:55 29.3 °F /  -1.5 °C 27.5 °F /  -2.5 °C 30.56 in /  1034.8 hPa Calm     93 % 0.00 in /  0 mm 0 W/m2
04:00 29.1 °F /  -1.6 °C 27.6 °F /  -2.4 °C 30.56 in /  1034.8 hPa Calm     94 % 0.00 in /  0 mm 0 W/m2
04:05 29.5 °F /  -1.4 °C 28.0 °F /  -2.2 °C 30.56 in /  1034.8 hPa Calm   1.0 mph /  1.6 km/h 94 % 0.00 in /  0 mm 0 W/m2
04:10 29.5 °F /  -1.4 °C 28.0 °F /  -2.2 °C 30.56 in /  1034.8 hPa Calm   1.0 mph /  1.6 km/h 94 % 0.00 in /  0 mm 0 W/m2
04:15 29.3 °F /  -1.5 °C 27.8 °F /  -2.3 °C 30.56 in /  1034.8 hPa Calm     94 % 0.00 in /  0 mm 0 W/m2
04:20 29.3 °F /  -1.5 °C 27.8 °F /  -2.3 °C 30.56 in /  1034.8 hPa Calm     94 % 0.00 in /  0 mm 0 W/m2
04:25 29.1 °F /  -1.6 °C 27.6 °F /  -2.4 °C 30.55 in /  1034.4 hPa Calm     94 % 0.00 in /  0 mm 0 W/m2
04:30 29.1 °F /  -1.6 °C 27.6 °F /  -2.4 °C 30.55 in /  1034.4 hPa Calm     94 % 0.00 in /  0 mm 0 W/m2
04:35 28.9 °F /  -1.7 °C 27.4 °F /  -2.6 °C 30.55 in /  1034.4 hPa Calm     94 % 0.00 in /  0 mm 0 W/m2
04:40 28.8 °F /  -1.8 °C 27.3 °F /  -2.6 °C 30.55 in /  1034.4 hPa Calm     94 % 0.00 in /  0 mm 0 W/m2
04:45 28.8 °F /  -1.8 °C 27.3 °F /  -2.6 °C 30.55 in /  1034.4 hPa Calm     94 % 0.00 in /  0 mm 0 W/m2
04:50 28.6 °F /  -1.9 °C 27.1 °F /  -2.7 °C 30.55 in /  1034.4 hPa Calm     94 % 0.00 in /  0 mm 0 W/m2
04:55 28.6 °F /  -1.9 °C 27.1 °F /  -2.7 °C 30.55 in /  1034.4 hPa Calm     94 % 0.00 in /  0 mm 0 W/m2
05:00 28.6 °F /  -1.9 °C 27.1 °F /  -2.7 °C 30.55 in /  1034.4 hPa Calm     94 % 0.00 in /  0 mm 0 W/m2
05:05 28.6 °F /  -1.9 °C 27.1 °F /  -2.7 °C 30.55 in /  1034.4 hPa Calm     94 % 0.00 in /  0 mm 0 W/m2
05:10 28.6 °F /  -1.9 °C 27.1 °F /  -2.7 °C 30.55 in /  1034.4 hPa Calm     94 % 0.00 in /  0 mm 0 W/m2
05:15 28.6 °F /  -1.9 °C 27.1 °F /  -2.7 °C 30.55 in /  1034.4 hPa Calm     94 % 0.00 in /  0 mm 0 W/m2
05:20 28.4 °F /  -2 °C 26.9 °F /  -2.8 °C 30.55 in /  1034.4 hPa Calm   2.0 mph /  3.2 km/h 94 % 0.00 in /  0 mm 0 W/m2
05:25 28.2 °F /  -2.1 °C 26.7 °F /  -2.9 °C 30.55 in /  1034.4 hPa Calm   2.0 mph /  3.2 km/h 94 % 0.00 in /  0 mm 0 W/m2
05:30 28.2 °F /  -2.1 °C 26.7 °F /  -2.9 °C 30.55 in /  1034.4 hPa Calm     94 % 0.00 in /  0 mm 0 W/m2
05:35 28.2 °F /  -2.1 °C 26.7 °F /  -2.9 °C 30.55 in /  1034.4 hPa Calm     94 % 0.00 in /  0 mm 0 W/m2
05:40 28.4 °F /  -2 °C 26.9 °F /  -2.8 °C 30.55 in /  1034.4 hPa Calm     94 % 0.00 in /  0 mm 0 W/m2
05:45 28.4 °F /  -2 °C 26.9 °F /  -2.8 °C 30.55 in /  1034.4 hPa Calm   2.0 mph /  3.2 km/h 94 % 0.00 in /  0 mm 0 W/m2
05:50 28.2 °F /  -2.1 °C 26.7 °F /  -2.9 °C 30.55 in /  1034.4 hPa Calm   2.0 mph /  3.2 km/h 94 % 0.00 in /  0 mm 0 W/m2
05:56 28.2 °F /  -2.1 °C 26.7 °F /  -2.9 °C 30.55 in /  1034.4 hPa Calm   1.0 mph /  1.6 km/h 94 % 0.00 in /  0 mm 0 W/m2
06:01 28.2 °F /  -2.1 °C 26.7 °F /  -2.9 °C 30.55 in /  1034.4 hPa Calm     94 % 0.00 in /  0 mm 0 W/m2
06:06 28.2 °F /  -2.1 °C 26.7 °F /  -2.9 °C 30.55 in /  1034.4 hPa Calm     94 % 0.00 in /  0 mm 5 W/m2
06:11 28.0 °F /  -2.2 °C 26.5 °F /  -3.1 °C 30.55 in /  1034.4 hPa Calm     94 % 0.00 in /  0 mm 9 W/m2
06:16 28.0 °F /  -2.2 °C 26.8 °F /  -2.9 °C 30.55 in /  1034.4 hPa Calm     95 % 0.00 in /  0 mm 11 W/m2
06:21 28.2 °F /  -2.1 °C 27.0 °F /  -2.8 °C 30.54 in /  1034.1 hPa Calm     95 % 0.00 in /  0 mm 12 W/m2
06:26 28.4 °F /  -2 °C 27.2 °F /  -2.7 °C 30.54 in /  1034.1 hPa Calm     95 % 0.00 in /  0 mm 14 W/m2
06:31 28.4 °F /  -2 °C 27.2 °F /  -2.7 °C 30.54 in /  1034.1 hPa Calm   1.0 mph /  1.6 km/h 95 % 0.00 in /  0 mm 16 W/m2
06:41 28.6 °F /  -1.9 °C 27.3 °F /  -2.6 °C 30.54 in /  1034.1 hPa Calm     95 % 0.00 in /  0 mm 19 W/m2
06:46 28.6 °F /  -1.9 °C 27.3 °F /  -2.6 °C 30.54 in /  1034.1 hPa Calm     95 % 0.00 in /  0 mm 21 W/m2
06:51 28.6 °F /  -1.9 °C 27.3 °F /  -2.6 °C 30.54 in /  1034.1 hPa Calm     95 % 0.00 in /  0 mm 25 W/m2
06:56 28.6 °F /  -1.9 °C 27.3 °F /  -2.6 °C 30.55 in /  1034.4 hPa Calm     95 % 0.00 in /  0 mm 28 W/m2
07:01 28.8 °F /  -1.8 °C 27.5 °F /  -2.5 °C 30.54 in /  1034.1 hPa Calm     95 % 0.00 in /  0 mm 54 W/m2
07:06 29.1 °F /  -1.6 °C 27.9 °F /  -2.3 °C 30.55 in /  1034.4 hPa Calm     95 % 0.00 in /  0 mm 121 W/m2
07:11 29.8 °F /  -1.2 °C 28.8 °F /  -1.8 °C 30.55 in /  1034.4 hPa Calm     96 % 0.00 in /  0 mm 153 W/m2
07:16 30.9 °F /  -0.6 °C 29.9 °F /  -1.2 °C 30.55 in /  1034.4 hPa Calm     96 % 0.00 in /  0 mm 185 W/m2
07:21 32.2 °F /  0.1 °C 31.4 °F /  -0.3 °C 30.55 in /  1034.4 hPa Calm     97 % 0.00 in /  0 mm 204 W/m2
07:26 33.3 °F /  0.7 °C 32.5 °F /  0.3 °C 30.55 in /  1034.4 hPa Calm     97 % 0.00 in /  0 mm 206 W/m2
07:32 34.2 °F /  1.2 °C 33.4 °F /  0.8 °C 30.55 in /  1034.4 hPa Calm     97 % 0.00 in /  0 mm 214 W/m2
07:37 34.5 °F /  1.4 °C 33.5 °F /  0.8 °C 30.55 in /  1034.4 hPa Calm     96 % 0.00 in /  0 mm 223 W/m2
07:42 35.1 °F /  1.7 °C 34.0 °F /  1.1 °C 30.55 in /  1034.4 hPa Calm     96 % 0.00 in /  0 mm 234 W/m2
07:47 35.4 °F /  1.9 °C 34.1 °F /  1.2 °C 30.55 in /  1034.4 hPa Calm     95 % 0.00 in /  0 mm 218 W/m2
07:52 36.0 °F /  2.2 °C 34.4 °F /  1.3 °C 30.55 in /  1034.4 hPa Calm     94 % 0.00 in /  0 mm 244 W/m2
07:57 36.3 °F /  2.4 °C 34.5 °F /  1.4 °C 30.55 in /  1034.4 hPa Calm     93 % 0.00 in /  0 mm 271 W/m2
08:02 36.9 °F /  2.7 °C 34.8 °F /  1.6 °C 30.55 in /  1034.4 hPa Calm     92 % 0.00 in /  0 mm 283 W/m2
08:07 37.4 °F /  3 °C 35.3 °F /  1.8 °C 30.55 in /  1034.4 hPa Calm     92 % 0.00 in /  0 mm 272 W/m2
08:12 37.9 °F /  3.3 °C 35.5 °F /  1.9 °C 30.55 in /  1034.4 hPa Calm     91 % 0.00 in /  0 mm 304 W/m2
08:17 38.5 °F /  3.6 °C 35.8 °F /  2.1 °C 30.55 in /  1034.4 hPa Calm     90 % 0.00 in /  0 mm 308 W/m2
08:22 39.4 °F /  4.1 °C 36.4 °F /  2.4 °C 30.55 in /  1034.4 hPa Calm     89 % 0.00 in /  0 mm 281 W/m2
08:27 40.5 °F /  4.7 °C 36.6 °F /  2.6 °C 30.55 in /  1034.4 hPa Calm     86 % 0.00 in /  0 mm 364 W/m2
08:32 41.4 °F /  5.2 °C 36.9 °F /  2.7 °C 30.55 in /  1034.4 hPa Calm     84 % 0.00 in /  0 mm 378 W/m2
08:37 42.3 °F /  5.7 °C 37.5 °F /  3.1 °C 30.55 in /  1034.4 hPa Calm     83 % 0.00 in /  0 mm 385 W/m2
08:42 43.0 °F /  6.1 °C 37.5 °F /  3.1 °C 30.55 in /  1034.4 hPa Calm     81 % 0.00 in /  0 mm 390 W/m2
08:47 43.5 °F /  6.4 °C 37.4 °F /  3 °C 30.55 in /  1034.4 hPa Calm     79 % 0.00 in /  0 mm 410 W/m2
08:52 44.4 °F /  6.9 °C 37.7 °F /  3.2 °C 30.55 in /  1034.4 hPa Calm     77 % 0.00 in /  0 mm 417 W/m2
08:57 45.0 °F /  7.2 °C 37.8 °F /  3.2 °C 30.55 in /  1034.4 hPa Calm     76 % 0.00 in /  0 mm 429 W/m2
09:02 45.7 °F /  7.6 °C 38.5 °F /  3.6 °C 30.55 in /  1034.4 hPa Calm   2.0 mph /  3.2 km/h 76 % 0.00 in /  0 mm 450 W/m2
09:07 46.4 °F /  8 °C 38.9 °F /  3.8 °C 30.55 in /  1034.4 hPa ENE 1.0 mph /  1.6 km/h 4.0 mph /  6.4 km/h 75 % 0.00 in /  0 mm 454 W/m2
09:12 47.1 °F /  8.4 °C 39.3 °F /  4.1 °C 30.55 in /  1034.4 hPa ENE 1.0 mph /  1.6 km/h 4.0 mph /  6.4 km/h 74 % 0.00 in /  0 mm 468 W/m2
09:17 47.7 °F /  8.7 °C 39.8 °F /  4.3 °C 30.55 in /  1034.4 hPa Calm   2.0 mph /  3.2 km/h 74 % 0.00 in /  0 mm 483 W/m2
09:22 48.4 °F /  9.1 °C 39.4 °F /  4.1 °C 30.55 in /  1034.4 hPa ENE 1.0 mph /  1.6 km/h 3.0 mph /  4.8 km/h 71 % 0.00 in /  0 mm 496 W/m2
09:27 48.7 °F /  9.3 °C 39.0 °F /  3.9 °C 30.56 in /  1034.8 hPa ENE 1.0 mph /  1.6 km/h 4.0 mph /  6.4 km/h 69 % 0.00 in /  0 mm 508 W/m2
09:32 49.1 °F /  9.5 °C 39.0 °F /  3.9 °C 30.56 in /  1034.8 hPa ENE 1.0 mph /  1.6 km/h 4.0 mph /  6.4 km/h 68 % 0.00 in /  0 mm 526 W/m2
09:37 49.3 °F /  9.6 °C 38.4 °F /  3.6 °C 30.55 in /  1034.4 hPa SE 1.0 mph /  1.6 km/h 5.0 mph /  8 km/h 66 % 0.00 in /  0 mm 536 W/m2
09:42 49.3 °F /  9.6 °C 38.4 °F /  3.6 °C 30.55 in /  1034.4 hPa SE 1.0 mph /  1.6 km/h 5.0 mph /  8 km/h 66 % 0.00 in /  0 mm 550 W/m2
09:47 49.5 °F /  9.7 °C 38.2 °F /  3.4 °C 30.55 in /  1034.4 hPa SSE 1.0 mph /  1.6 km/h 5.0 mph /  8 km/h 65 % 0.00 in /  0 mm 557 W/m2
09:52 49.5 °F /  9.7 °C 38.2 °F /  3.4 °C 30.55 in /  1034.4 hPa South 1.0 mph /  1.6 km/h 5.0 mph /  8 km/h 65 % 0.00 in /  0 mm 557 W/m2
09:57 49.8 °F /  9.9 °C 38.5 °F /  3.6 °C 30.54 in /  1034.1 hPa South 1.0 mph /  1.6 km/h 6.0 mph /  9.7 km/h 65 % 0.00 in /  0 mm 571 W/m2
10:02 50.4 °F /  10.2 °C 38.2 °F /  3.4 °C 30.55 in /  1034.4 hPa SSE 2.0 mph /  3.2 km/h 6.0 mph /  9.7 km/h 63 % 0.00 in /  0 mm 582 W/m2
10:07 50.9 °F /  10.5 °C 38.3 °F /  3.5 °C 30.55 in /  1034.4 hPa SSE 2.0 mph /  3.2 km/h 6.0 mph /  9.7 km/h 62 % 0.00 in /  0 mm 591 W/m2
10:12 51.1 °F /  10.6 °C 37.2 °F /  2.9 °C 30.55 in /  1034.4 hPa SE 1.0 mph /  1.6 km/h 6.0 mph /  9.7 km/h 59 % 0.00 in /  0 mm 592 W/m2
10:17 51.4 °F /  10.8 °C 38.0 °F /  3.3 °C 30.54 in /  1034.1 hPa SE 2.0 mph /  3.2 km/h 6.0 mph /  9.7 km/h 60 % 0.00 in /  0 mm 603 W/m2
10:23 52.0 °F /  11.1 °C 37.2 °F /  2.9 °C 30.54 in /  1034.1 hPa SSE 1.0 mph /  1.6 km/h 6.0 mph /  9.7 km/h 57 % 0.00 in /  0 mm 603 W/m2
10:28 52.2 °F /  11.2 °C 36.5 °F /  2.5 °C 30.54 in /  1034.1 hPa SE 2.0 mph /  3.2 km/h 5.0 mph /  8 km/h 55 % 0.00 in /  0 mm 608 W/m2
10:33 52.5 °F /  11.4 °C 36.3 °F /  2.4 °C 30.54 in /  1034.1 hPa SE 2.0 mph /  3.2 km/h 5.0 mph /  8 km/h 54 % 0.00 in /  0 mm 613 W/m2
10:38 52.9 °F /  11.6 °C 34.7 °F /  1.5 °C 30.54 in /  1034.1 hPa SE 2.0 mph /  3.2 km/h 6.0 mph /  9.7 km/h 50 % 0.00 in /  0 mm 619 W/m2
10:43 52.9 °F /  11.6 °C 33.7 °F /  0.9 °C 30.54 in /  1034.1 hPa SE 3.0 mph /  4.8 km/h 6.0 mph /  9.7 km/h 48 % 0.00 in /  0 mm 610 W/m2
10:48 52.9 °F /  11.6 °C 33.7 °F /  0.9 °C 30.54 in /  1034.1 hPa SE 2.0 mph /  3.2 km/h 5.0 mph /  8 km/h 48 % 0.00 in /  0 mm 605 W/m2
10:53 53.2 °F /  11.8 °C 34.0 °F /  1.1 °C 30.53 in /  1033.7 hPa ESE 1.0 mph /  1.6 km/h 7.0 mph /  11.3 km/h 48 % 0.00 in /  0 mm 615 W/m2
10:58 53.6 °F /  12 °C 34.4 °F /  1.3 °C 30.53 in /  1033.7 hPa East 1.0 mph /  1.6 km/h 7.0 mph /  11.3 km/h 48 % 0.00 in /  0 mm 619 W/m2
11:03 54.0 °F /  12.2 °C 34.2 °F /  1.2 °C 30.53 in /  1033.7 hPa East 1.0 mph /  1.6 km/h 6.0 mph /  9.7 km/h 47 % 0.00 in /  0 mm 650 W/m2
11:08 54.1 °F /  12.3 °C 32.1 °F /  0.1 °C 30.53 in /  1033.7 hPa East 2.0 mph /  3.2 km/h 6.0 mph /  9.7 km/h 43 % 0.00 in /  0 mm 666 W/m2
11:13 54.1 °F /  12.3 °C 33.8 °F /  1 °C 30.53 in /  1033.7 hPa East 2.0 mph /  3.2 km/h 6.0 mph /  9.7 km/h 46 % 0.00 in /  0 mm 677 W/m2
11:18 54.3 °F /  12.4 °C 31.7 °F /  -0.2 °C 30.53 in /  1033.7 hPa ESE 3.0 mph /  4.8 km/h 6.0 mph /  9.7 km/h 42 % 0.00 in /  0 mm 666 W/m2
11:23 54.3 °F /  12.4 °C 31.1 °F /  -0.5 °C 30.53 in /  1033.7 hPa ESE 3.0 mph /  4.8 km/h 6.0 mph /  9.7 km/h 41 % 0.00 in /  0 mm 621 W/m2
11:28 54.7 °F /  12.6 °C 34.8 °F /  1.6 °C 30.52 in /  1033.4 hPa ESE 3.0 mph /  4.8 km/h 7.0 mph /  11.3 km/h 47 % 0.00 in /  0 mm 682 W/m2
11:33 55.0 °F /  12.8 °C 34.6 °F /  1.4 °C 30.52 in /  1033.4 hPa ESE 2.0 mph /  3.2 km/h 7.0 mph /  11.3 km/h 46 % 0.00 in /  0 mm 684 W/m2
11:38 55.2 °F /  12.9 °C 33.7 °F /  0.9 °C 30.52 in /  1033.4 hPa ESE 1.0 mph /  1.6 km/h 7.0 mph /  11.3 km/h 44 % 0.00 in /  0 mm 689 W/m2
11:43 55.6 °F /  13.1 °C 31.6 °F /  -0.2 °C 30.51 in /  1033.1 hPa ENE 2.0 mph /  3.2 km/h 7.0 mph /  11.3 km/h 40 % 0.00 in /  0 mm 689 W/m2
11:48 55.6 °F /  13.1 °C 31.6 °F /  -0.2 °C 30.51 in /  1033.1 hPa NE 2.0 mph /  3.2 km/h 7.0 mph /  11.3 km/h 40 % 0.00 in /  0 mm 691 W/m2
11:53 55.4 °F /  13 °C 30.8 °F /  -0.7 °C 30.51 in /  1033.1 hPa NE 3.0 mph /  4.8 km/h 7.0 mph /  11.3 km/h 39 % 0.00 in /  0 mm 698 W/m2
11:58 55.8 °F /  13.2 °C 31.2 °F /  -0.4 °C 30.51 in /  1033.1 hPa ENE 3.0 mph /  4.8 km/h 6.0 mph /  9.7 km/h 39 % 0.00 in /  0 mm 698 W/m2
12:03 56.1 °F /  13.4 °C 31.5 °F /  -0.3 °C 30.51 in /  1033.1 hPa East 1.0 mph /  1.6 km/h 6.0 mph /  9.7 km/h 39 % 0.00 in /  0 mm 689 W/m2
12:08 56.5 °F /  13.6 °C 31.8 °F /  -0.1 °C 30.50 in /  1032.7 hPa East 2.0 mph /  3.2 km/h 6.0 mph /  9.7 km/h 39 % 0.00 in /  0 mm 698 W/m2
12:13 56.7 °F /  13.7 °C 30.0 °F /  -1.1 °C 30.50 in /  1032.7 hPa East 3.0 mph /  4.8 km/h 6.0 mph /  9.7 km/h 36 % 0.00 in /  0 mm 693 W/m2
12:18 57.0 °F /  13.9 °C 32.3 °F /  0.2 °C 30.50 in /  1032.7 hPa East 2.0 mph /  3.2 km/h 6.0 mph /  9.7 km/h 39 % 0.00 in /  0 mm 696 W/m2
12:23 57.2 °F /  14 °C 29.8 °F /  -1.2 °C 30.50 in /  1032.7 hPa East 2.0 mph /  3.2 km/h 6.0 mph /  9.7 km/h 35 % 0.00 in /  0 mm 694 W/m2
12:28 57.4 °F /  14.1 °C 29.2 °F /  -1.6 °C 30.50 in /  1032.7 hPa East 2.0 mph /  3.2 km/h 6.0 mph /  9.7 km/h 34 % 0.00 in /  0 mm 691 W/m2
12:33 57.6 °F /  14.2 °C 30.1 °F /  -1.1 °C 30.49 in /  1032.4 hPa ESE 3.0 mph /  4.8 km/h 7.0 mph /  11.3 km/h 35 % 0.00 in /  0 mm 677 W/m2
12:38 57.7 °F /  14.3 °C 31.6 °F /  -0.2 °C 30.49 in /  1032.4 hPa ESE 3.0 mph /  4.8 km/h 7.0 mph /  11.3 km/h 37 % 0.00 in /  0 mm 694 W/m2
12:43 57.9 °F /  14.4 °C 30.4 °F /  -0.9 °C 30.49 in /  1032.4 hPa East 3.0 mph /  4.8 km/h 7.0 mph /  11.3 km/h 35 % 0.00 in /  0 mm 694 W/m2
12:48 57.9 °F /  14.4 °C 26.6 °F /  -3 °C 30.48 in /  1032.1 hPa ESE 5.0 mph /  8 km/h 10.0 mph /  16.1 km/h 30 % 0.00 in /  0 mm 622 W/m2
12:53 57.9 °F /  14.4 °C 29.7 °F /  -1.3 °C 30.48 in /  1032.1 hPa ESE 4.0 mph /  6.4 km/h 10.0 mph /  16.1 km/h 34 % 0.00 in /  0 mm 689 W/m2
12:58 58.1 °F /  14.5 °C 29.1 °F /  -1.6 °C 30.48 in /  1032.1 hPa ESE 3.0 mph /  4.8 km/h 7.0 mph /  11.3 km/h 33 % 0.00 in /  0 mm 687 W/m2
13:03 57.9 °F /  14.4 °C 30.4 °F /  -0.9 °C 30.48 in /  1032.1 hPa ESE 2.0 mph /  3.2 km/h 7.0 mph /  11.3 km/h 35 % 0.00 in /  0 mm 684 W/m2
13:08 58.5 °F /  14.7 °C 32.3 °F /  0.2 °C 30.48 in /  1032.1 hPa ESE 3.0 mph /  4.8 km/h 9.0 mph /  14.5 km/h 37 % 0.00 in /  0 mm 680 W/m2
13:14 58.8 °F /  14.9 °C 31.2 °F /  -0.4 °C 30.47 in /  1031.7 hPa ESE 4.0 mph /  6.4 km/h 11.0 mph /  17.7 km/h 35 % 0.00 in /  0 mm 647 W/m2
13:19 59.2 °F /  15.1 °C 30.8 °F /  -0.7 °C 30.47 in /  1031.7 hPa East 3.0 mph /  4.8 km/h 11.0 mph /  17.7 km/h 34 % 0.00 in /  0 mm 666 W/m2
13:24 59.2 °F /  15.1 °C 30.1 °F /  -1.1 °C 30.47 in /  1031.7 hPa East 2.0 mph /  3.2 km/h 5.0 mph /  8 km/h 33 % 0.00 in /  0 mm 654 W/m2
13:29 59.2 °F /  15.1 °C 30.8 °F /  -0.7 °C 30.46 in /  1031.4 hPa SE 3.0 mph /  4.8 km/h 15.0 mph /  24.1 km/h 34 % 0.00 in /  0 mm 631 W/m2
13:34 58.8 °F /  14.9 °C 29.7 °F /  -1.3 °C 30.47 in /  1031.7 hPa ESE 5.0 mph /  8 km/h 15.0 mph /  24.1 km/h 33 % 0.00 in /  0 mm 636 W/m2
13:39 58.6 °F /  14.8 °C 28.8 °F /  -1.8 °C 30.46 in /  1031.4 hPa ENE 4.0 mph /  6.4 km/h 9.0 mph /  14.5 km/h 32 % 0.00 in /  0 mm 642 W/m2
13:44 58.8 °F /  14.9 °C 27.4 °F /  -2.6 °C 30.46 in /  1031.4 hPa East 3.0 mph /  4.8 km/h 8.0 mph /  12.9 km/h 30 % 0.00 in /  0 mm 631 W/m2
13:49 58.6 °F /  14.8 °C 28.8 °F /  -1.8 °C 30.45 in /  1031 hPa East 4.0 mph /  6.4 km/h 9.0 mph /  14.5 km/h 32 % 0.00 in /  0 mm 490 W/m2
13:54 58.5 °F /  14.7 °C 27.9 °F /  -2.3 °C 30.45 in /  1031 hPa ENE 3.0 mph /  4.8 km/h 9.0 mph /  14.5 km/h 31 % 0.00 in /  0 mm 584 W/m2
13:59 58.6 °F /  14.8 °C 28.1 °F /  -2.2 °C 30.45 in /  1031 hPa East 3.0 mph /  4.8 km/h 7.0 mph /  11.3 km/h 31 % 0.00 in /  0 mm 598 W/m2
14:04 58.8 °F /  14.9 °C 29.0 °F /  -1.7 °C 30.45 in /  1031 hPa ESE 4.0 mph /  6.4 km/h 8.0 mph /  12.9 km/h 32 % 0.00 in /  0 mm 610 W/m2
14:09 59.2 °F /  15.1 °C 30.1 °F /  -1.1 °C 30.44 in /  1030.7 hPa ESE 2.0 mph /  3.2 km/h 8.0 mph /  12.9 km/h 33 % 0.00 in /  0 mm 585 W/m2
14:14 59.5 °F /  15.3 °C 28.0 °F /  -2.2 °C 30.44 in /  1030.7 hPa East 3.0 mph /  4.8 km/h 8.0 mph /  12.9 km/h 30 % 0.00 in /  0 mm 548 W/m2
14:19 59.4 °F /  15.2 °C 27.9 °F /  -2.3 °C 30.44 in /  1030.7 hPa East 3.0 mph /  4.8 km/h 8.0 mph /  12.9 km/h 30 % 0.00 in /  0 mm 547 W/m2
14:24 59.5 °F /  15.3 °C 28.0 °F /  -2.2 °C 30.43 in /  1030.4 hPa East 3.0 mph /  4.8 km/h 6.0 mph /  9.7 km/h 30 % 0.00 in /  0 mm 554 W/m2
14:29 59.7 °F /  15.4 °C 29.0 °F /  -1.7 °C 30.43 in /  1030.4 hPa East 3.0 mph /  4.8 km/h 7.0 mph /  11.3 km/h 31 % 0.00 in /  0 mm 550 W/m2
14:34 59.7 °F /  15.4 °C 28.2 °F /  -2.1 °C 30.43 in /  1030.4 hPa East 3.0 mph /  4.8 km/h 7.0 mph /  11.3 km/h 30 % 0.00 in /  0 mm 557 W/m2
14:39 60.1 °F /  15.6 °C 28.5 °F /  -1.9 °C 30.43 in /  1030.4 hPa ESE 3.0 mph /  4.8 km/h 7.0 mph /  11.3 km/h 30 % 0.00 in /  0 mm 541 W/m2
14:44 60.1 °F /  15.6 °C 28.5 °F /  -1.9 °C 30.43 in /  1030.4 hPa East 3.0 mph /  4.8 km/h 7.0 mph /  11.3 km/h 30 % 0.00 in /  0 mm 543 W/m2
14:49 60.3 °F /  15.7 °C 27.8 °F /  -2.3 °C 30.43 in /  1030.4 hPa East 2.0 mph /  3.2 km/h 7.0 mph /  11.3 km/h 29 % 0.00 in /  0 mm 527 W/m2
14:54 60.3 °F /  15.7 °C 27.0 °F /  -2.8 °C 30.42 in /  1030 hPa ESE 3.0 mph /  4.8 km/h 9.0 mph /  14.5 km/h 28 % 0.00 in /  0 mm 492 W/m2
14:59 60.3 °F /  15.7 °C 27.0 °F /  -2.8 °C 30.42 in /  1030 hPa East 4.0 mph /  6.4 km/h 9.0 mph /  14.5 km/h 28 % 0.00 in /  0 mm 403 W/m2
15:04 60.4 °F /  15.8 °C 26.3 °F /  -3.2 °C 30.42 in /  1030 hPa East 3.0 mph /  4.8 km/h 9.0 mph /  14.5 km/h 27 % 0.00 in /  0 mm 394 W/m2
15:09 60.3 °F /  15.7 °C 26.1 °F /  -3.3 °C 30.42 in /  1030 hPa East 4.0 mph /  6.4 km/h 9.0 mph /  14.5 km/h 27 % 0.00 in /  0 mm 373 W/m2
15:14 60.3 °F /  15.7 °C 25.2 °F /  -3.8 °C 30.42 in /  1030 hPa East 3.0 mph /  4.8 km/h 9.0 mph /  14.5 km/h 26 % 0.00 in /  0 mm 438 W/m2
15:19 60.3 °F /  15.7 °C 27.0 °F /  -2.8 °C 30.41 in /  1029.7 hPa East 3.0 mph /  4.8 km/h 9.0 mph /  14.5 km/h 28 % 0.00 in /  0 mm 418 W/m2
15:24 60.1 °F /  15.6 °C 27.7 °F /  -2.4 °C 30.41 in /  1029.7 hPa East 4.0 mph /  6.4 km/h 8.0 mph /  12.9 km/h 29 % 0.00 in /  0 mm 410 W/m2
15:29 60.1 °F /  15.6 °C 26.8 °F /  -2.9 °C 30.41 in /  1029.7 hPa East 3.0 mph /  4.8 km/h 8.0 mph /  12.9 km/h 28 % 0.00 in /  0 mm 399 W/m2
15:34 59.9 °F /  15.5 °C 25.8 °F /  -3.4 °C 30.41 in /  1029.7 hPa East 3.0 mph /  4.8 km/h 7.0 mph /  11.3 km/h 27 % 0.00 in /  0 mm 360 W/m2
15:39 59.7 °F /  15.4 °C 25.6 °F /  -3.6 °C 30.41 in /  1029.7 hPa East 3.0 mph /  4.8 km/h 7.0 mph /  11.3 km/h 27 % 0.00 in /  0 mm 396 W/m2
15:44 59.7 °F /  15.4 °C 25.6 °F /  -3.6 °C 30.41 in /  1029.7 hPa East 2.0 mph /  3.2 km/h 6.0 mph /  9.7 km/h 27 % 0.00 in /  0 mm 388 W/m2
15:49 59.9 °F /  15.5 °C 25.8 °F /  -3.4 °C 30.41 in /  1029.7 hPa East 2.0 mph /  3.2 km/h 6.0 mph /  9.7 km/h 27 % 0.00 in /  0 mm 366 W/m2
15:54 60.1 °F /  15.6 °C 26.8 °F /  -2.9 °C 30.40 in /  1029.3 hPa East 2.0 mph /  3.2 km/h 7.0 mph /  11.3 km/h 28 % 0.00 in /  0 mm 348 W/m2
15:59 59.9 °F /  15.5 °C 26.7 °F /  -2.9 °C 30.40 in /  1029.3 hPa East 2.0 mph /  3.2 km/h 7.0 mph /  11.3 km/h 28 % 0.00 in /  0 mm 297 W/m2
16:04 59.7 °F /  15.4 °C 27.4 °F /  -2.6 °C 30.40 in /  1029.3 hPa East 3.0 mph /  4.8 km/h 7.0 mph /  11.3 km/h 29 % 0.00 in /  0 mm 325 W/m2
16:10 59.5 °F /  15.3 °C 28.0 °F /  -2.2 °C 30.39 in /  1029 hPa East 2.0 mph /  3.2 km/h 7.0 mph /  11.3 km/h 30 % 0.00 in /  0 mm 320 W/m2
16:15 59.5 °F /  15.3 °C 27.2 °F /  -2.7 °C 30.39 in /  1029 hPa ESE 3.0 mph /  4.8 km/h 9.0 mph /  14.5 km/h 29 % 0.00 in /  0 mm 304 W/m2
16:20 59.5 °F /  15.3 °C 28.8 °F /  -1.8 °C 30.39 in /  1029 hPa ESE 5.0 mph /  8 km/h 9.0 mph /  14.5 km/h 31 % 0.00 in /  0 mm 274 W/m2
16:25 59.2 °F /  15.1 °C 26.9 °F /  -2.8 °C 30.39 in /  1029 hPa ESE 5.0 mph /  8 km/h 9.0 mph /  14.5 km/h 29 % 0.00 in /  0 mm 271 W/m2
16:30 59.2 °F /  15.1 °C 26.9 °F /  -2.8 °C 30.39 in /  1029 hPa ESE 5.0 mph /  8 km/h 10.0 mph /  16.1 km/h 29 % 0.00 in /  0 mm 264 W/m2
16:35 58.8 °F /  14.9 °C 27.4 °F /  -2.6 °C 30.39 in /  1029 hPa ESE 5.0 mph /  8 km/h 10.0 mph /  16.1 km/h 30 % 0.00 in /  0 mm 232 W/m2
16:40 58.8 °F /  14.9 °C 26.6 °F /  -3 °C 30.39 in /  1029 hPa East 4.0 mph /  6.4 km/h 9.0 mph /  14.5 km/h 29 % 0.00 in /  0 mm 237 W/m2
16:45 59.0 °F /  15 °C 26.8 °F /  -2.9 °C 30.39 in /  1029 hPa ESE 4.0 mph /  6.4 km/h 9.0 mph /  14.5 km/h 29 % 0.00 in /  0 mm 209 W/m2
16:50 58.8 °F /  14.9 °C 26.6 °F /  -3 °C 30.39 in /  1029 hPa ESE 4.0 mph /  6.4 km/h 11.0 mph /  17.7 km/h 29 % 0.00 in /  0 mm 211 W/m2
16:55 58.6 °F /  14.8 °C 27.3 °F /  -2.6 °C 30.38 in /  1028.7 hPa East 4.0 mph /  6.4 km/h 11.0 mph /  17.7 km/h 30 % 0.00 in /  0 mm 197 W/m2
17:00 58.5 °F /  14.7 °C 27.9 °F /  -2.3 °C 30.39 in /  1029 hPa East 3.0 mph /  4.8 km/h 9.0 mph /  14.5 km/h 31 % 0.00 in /  0 mm 185 W/m2
17:05 58.3 °F /  14.6 °C 27.7 °F /  -2.4 °C 30.39 in /  1029 hPa ENE 3.0 mph /  4.8 km/h 8.0 mph /  12.9 km/h 31 % 0.00 in /  0 mm 151 W/m2
17:10 58.1 °F /  14.5 °C 28.4 °F /  -2 °C 30.39 in /  1029 hPa ENE 3.0 mph /  4.8 km/h 8.0 mph /  12.9 km/h 32 % 0.00 in /  0 mm 137 W/m2
17:15 57.7 °F /  14.3 °C 28.8 °F /  -1.8 °C 30.39 in /  1029 hPa ENE 3.0 mph /  4.8 km/h 7.0 mph /  11.3 km/h 33 % 0.00 in /  0 mm 137 W/m2
17:21 57.6 °F /  14.2 °C 29.4 °F /  -1.4 °C 30.39 in /  1029 hPa ENE 3.0 mph /  4.8 km/h 7.0 mph /  11.3 km/h 34 % 0.00 in /  0 mm 123 W/m2
17:26 57.4 °F /  14.1 °C 29.2 °F /  -1.6 °C 30.39 in /  1029 hPa East 2.0 mph /  3.2 km/h 7.0 mph /  11.3 km/h 34 % 0.00 in /  0 mm 100 W/m2
17:31 57.4 °F /  14.1 °C 28.5 °F /  -1.9 °C 30.39 in /  1029 hPa East 3.0 mph /  4.8 km/h 9.0 mph /  14.5 km/h 33 % 0.00 in /  0 mm 63 W/m2
17:36 56.8 °F /  13.8 °C 28.0 °F /  -2.2 °C 30.39 in /  1029 hPa ENE 3.0 mph /  4.8 km/h 9.0 mph /  14.5 km/h 33 % 0.00 in /  0 mm 58 W/m2
17:41 56.5 °F /  13.6 °C 28.4 °F /  -2 °C 30.39 in /  1029 hPa ENE 2.0 mph /  3.2 km/h 7.0 mph /  11.3 km/h 34 % 0.00 in /  0 mm 47 W/m2
17:46 56.1 °F /  13.4 °C 28.1 °F /  -2.2 °C 30.39 in /  1029 hPa ENE 2.0 mph /  3.2 km/h 5.0 mph /  8 km/h 34 % 0.00 in /  0 mm 47 W/m2
17:51 55.9 °F /  13.3 °C 28.7 °F /  -1.8 °C 30.39 in /  1029 hPa ENE 2.0 mph /  3.2 km/h 5.0 mph /  8 km/h 35 % 0.00 in /  0 mm 39 W/m2
17:56 55.6 °F /  13.1 °C 28.3 °F /  -2.1 °C 30.39 in /  1029 hPa ENE 1.0 mph /  1.6 km/h 5.0 mph /  8 km/h 35 % 0.00 in /  0 mm 30 W/m2
18:01 55.4 °F /  13 °C 28.2 °F /  -2.1 °C 30.39 in /  1029 hPa ENE 1.0 mph /  1.6 km/h 5.0 mph /  8 km/h 35 % 0.00 in /  0 mm 21 W/m2
18:06 55.0 °F /  12.8 °C 28.5 °F /  -1.9 °C 30.39 in /  1029 hPa ENE 1.0 mph /  1.6 km/h 4.0 mph /  6.4 km/h 36 % 0.00 in /  0 mm 16 W/m2
18:11 54.9 °F /  12.7 °C 29.1 °F /  -1.6 °C 30.39 in /  1029 hPa ENE 1.0 mph /  1.6 km/h 4.0 mph /  6.4 km/h 37 % 0.00 in /  0 mm 12 W/m2
18:16 54.5 °F /  12.5 °C 28.7 °F /  -1.8 °C 30.39 in /  1029 hPa Calm   3.0 mph /  4.8 km/h 37 % 0.00 in /  0 mm 9 W/m2
18:21 54.1 °F /  12.3 °C 29.1 °F /  -1.6 °C 30.39 in /  1029 hPa Calm   3.0 mph /  4.8 km/h 38 % 0.00 in /  0 mm 7 W/m2
18:26 53.8 °F /  12.1 °C 30.0 °F /  -1.1 °C 30.39 in /  1029 hPa Calm   2.0 mph /  3.2 km/h 40 % 0.00 in /  0 mm 0 W/m2
18:31 53.4 °F /  11.9 °C 29.1 °F /  -1.6 °C 30.39 in /  1029 hPa Calm   1.0 mph /  1.6 km/h 39 % 0.00 in /  0 mm 0 W/m2
18:36 52.9 °F /  11.6 °C 29.8 °F /  -1.2 °C 30.39 in /  1029 hPa Calm     41 % 0.00 in /  0 mm 0 W/m2
18:41 52.5 °F /  11.4 °C 30.1 °F /  -1.1 °C 30.39 in /  1029 hPa Calm     42 % 0.00 in /  0 mm 0 W/m2
18:46 52.0 °F /  11.1 °C 30.2 °F /  -1 °C 30.39 in /  1029 hPa Calm     43 % 0.00 in /  0 mm 0 W/m2
18:51 51.4 °F /  10.8 °C 30.8 °F /  -0.7 °C 30.40 in /  1029.3 hPa Calm     45 % 0.00 in /  0 mm 0 W/m2
18:56 51.1 °F /  10.6 °C 30.5 °F /  -0.8 °C 30.40 in /  1029.3 hPa Calm     45 % 0.00 in /  0 mm 0 W/m2
19:01 50.5 °F /  10.3 °C 30.5 °F /  -0.8 °C 30.40 in /  1029.3 hPa Calm     46 % 0.00 in /  0 mm 0 W/m2
19:06 50.4 °F /  10.2 °C 31.4 °F /  -0.3 °C 30.40 in /  1029.3 hPa Calm     48 % 0.00 in /  0 mm 0 W/m2
19:11 49.8 °F /  9.9 °C 32.4 °F /  0.2 °C 30.40 in /  1029.3 hPa Calm     51 % 0.00 in /  0 mm 0 W/m2
19:16 49.3 °F /  9.6 °C 31.9 °F /  -0.1 °C 30.40 in /  1029.3 hPa Calm     51 % 0.00 in /  0 mm 0 W/m2
19:21 48.7 °F /  9.3 °C 31.9 °F /  -0.1 °C 30.40 in /  1029.3 hPa Calm     52 % 0.00 in /  0 mm 0 W/m2
19:26 48.4 °F /  9.1 °C 33.4 °F /  0.8 °C 30.40 in /  1029.3 hPa Calm     56 % 0.00 in /  0 mm 0 W/m2
19:31 47.8 °F /  8.8 °C 33.3 °F /  0.7 °C 30.40 in /  1029.3 hPa Calm     57 % 0.00 in /  0 mm 0 W/m2
19:36 47.5 °F /  8.6 °C 33.9 °F /  1.1 °C 30.40 in /  1029.3 hPa Calm     59 % 0.00 in /  0 mm 0 W/m2
19:41 46.9 °F /  8.3 °C 33.8 °F /  1 °C 30.40 in /  1029.3 hPa Calm     60 % 0.00 in /  0 mm 0 W/m2
19:46 46.2 °F /  7.9 °C 33.9 °F /  1.1 °C 30.40 in /  1029.3 hPa Calm     62 % 0.00 in /  0 mm 0 W/m2
19:51 45.9 °F /  7.7 °C 33.6 °F /  0.9 °C 30.40 in /  1029.3 hPa Calm     62 % 0.00 in /  0 mm 0 W/m2
19:56 45.5 °F /  7.5 °C 33.6 °F /  0.9 °C 30.40 in /  1029.3 hPa Calm     63 % 0.00 in /  0 mm 0 W/m2
20:01 45.1 °F /  7.3 °C 33.7 °F /  0.9 °C 30.40 in /  1029.3 hPa Calm     64 % 0.00 in /  0 mm 0 W/m2
20:06 45.0 °F /  7.2 °C 33.5 °F /  0.8 °C 30.41 in /  1029.7 hPa Calm     64 % 0.00 in /  0 mm 0 W/m2
20:11 44.6 °F /  7 °C 33.9 °F /  1.1 °C 30.41 in /  1029.7 hPa Calm     66 % 0.00 in /  0 mm 0 W/m2
20:16 44.2 °F /  6.8 °C 34.0 °F /  1.1 °C 30.41 in /  1029.7 hPa Calm   2.0 mph /  3.2 km/h 67 % 0.00 in /  0 mm 0 W/m2
20:21 44.1 °F /  6.7 °C 33.0 °F /  0.6 °C 30.41 in /  1029.7 hPa Calm   4.0 mph /  6.4 km/h 65 % 0.00 in /  0 mm 0 W/m2
20:26 44.1 °F /  6.7 °C 32.7 °F /  0.4 °C 30.40 in /  1029.3 hPa ENE 1.0 mph /  1.6 km/h 4.0 mph /  6.4 km/h 64 % 0.00 in /  0 mm 0 W/m2
20:31 44.1 °F /  6.7 °C 33.0 °F /  0.6 °C 30.41 in /  1029.7 hPa Calm   3.0 mph /  4.8 km/h 65 % 0.00 in /  0 mm 0 W/m2
20:36 43.9 °F /  6.6 °C 32.9 °F /  0.5 °C 30.41 in /  1029.7 hPa Calm     65 % 0.00 in /  0 mm 0 W/m2
20:41 43.9 °F /  6.6 °C 32.9 °F /  0.5 °C 30.41 in /  1029.7 hPa Calm     65 % 0.00 in /  0 mm 0 W/m2
20:46 43.5 °F /  6.4 °C 32.5 °F /  0.3 °C 30.41 in /  1029.7 hPa Calm     65 % 0.00 in /  0 mm 0 W/m2
20:52 43.3 °F /  6.3 °C 32.7 °F /  0.4 °C 30.41 in /  1029.7 hPa Calm     66 % 0.00 in /  0 mm 0 W/m2
20:57 43.2 °F /  6.2 °C 32.6 °F /  0.3 °C 30.41 in /  1029.7 hPa Calm     66 % 0.00 in /  0 mm 0 W/m2
21:02 43.0 °F /  6.1 °C 32.4 °F /  0.2 °C 30.40 in /  1029.3 hPa Calm     66 % 0.00 in /  0 mm 0 W/m2
21:07 42.6 °F /  5.9 °C 32.8 °F /  0.4 °C 30.40 in /  1029.3 hPa Calm     68 % 0.00 in /  0 mm 0 W/m2
21:12 42.3 °F /  5.7 °C 32.8 °F /  0.4 °C 30.40 in /  1029.3 hPa Calm     69 % 0.00 in /  0 mm 0 W/m2
21:17 42.1 °F /  5.6 °C 33.0 °F /  0.6 °C 30.40 in /  1029.3 hPa Calm     70 % 0.00 in /  0 mm 0 W/m2
21:22 41.7 °F /  5.4 °C 33.0 °F /  0.6 °C 30.41 in /  1029.7 hPa Calm     71 % 0.00 in /  0 mm 0 W/m2
21:27 41.4 °F /  5.2 °C 33.0 °F /  0.6 °C 30.41 in /  1029.7 hPa Calm     72 % 0.00 in /  0 mm 0 W/m2
21:32 41.2 °F /  5.1 °C 32.8 °F /  0.4 °C 30.41 in /  1029.7 hPa Calm     72 % 0.00 in /  0 mm 0 W/m2
21:37 40.8 °F /  4.9 °C 32.8 °F /  0.4 °C 30.40 in /  1029.3 hPa Calm     73 % 0.00 in /  0 mm 0 W/m2
21:42 40.5 °F /  4.7 °C 32.5 °F /  0.3 °C 30.40 in /  1029.3 hPa Calm     73 % 0.00 in /  0 mm 0 W/m2
21:47 40.3 °F /  4.6 °C 32.6 °F /  0.3 °C 30.40 in /  1029.3 hPa Calm     74 % 0.00 in /  0 mm 0 W/m2
21:52 40.3 °F /  4.6 °C 33.0 °F /  0.6 °C 30.40 in /  1029.3 hPa Calm     75 % 0.00 in /  0 mm 0 W/m2
21:57 39.9 °F /  4.4 °C 32.6 °F /  0.3 °C 30.40 in /  1029.3 hPa Calm     75 % 0.00 in /  0 mm 0 W/m2
22:02 39.7 °F /  4.3 °C 32.5 °F /  0.3 °C 30.40 in /  1029.3 hPa Calm     75 % 0.00 in /  0 mm 0 W/m2
22:07 39.4 °F /  4.1 °C 32.4 °F /  0.2 °C 30.40 in /  1029.3 hPa Calm     76 % 0.00 in /  0 mm 0 W/m2
22:12 39.2 °F /  4 °C 31.9 °F /  -0.1 °C 30.40 in /  1029.3 hPa Calm     75 % 0.00 in /  0 mm 0 W/m2
22:17 39.0 °F /  3.9 °C 32.1 °F /  0.1 °C 30.40 in /  1029.3 hPa Calm     76 % 0.00 in /  0 mm 0 W/m2
22:22 38.8 °F /  3.8 °C 31.9 °F /  -0.1 °C 30.40 in /  1029.3 hPa Calm     76 % 0.00 in /  0 mm 0 W/m2
22:27 38.7 °F /  3.7 °C 32.1 °F /  0.1 °C 30.40 in /  1029.3 hPa Calm     77 % 0.00 in /  0 mm 0 W/m2
22:32 38.5 °F /  3.6 °C 32.2 °F /  0.1 °C 30.40 in /  1029.3 hPa Calm     78 % 0.00 in /  0 mm 0 W/m2
22:37 38.3 °F /  3.5 °C 31.7 °F /  -0.2 °C 30.40 in /  1029.3 hPa Calm     77 % 0.00 in /  0 mm 0 W/m2
22:42 38.1 °F /  3.4 °C 31.9 °F /  -0.1 °C 30.39 in /  1029 hPa Calm     78 % 0.00 in /  0 mm 0 W/m2
22:47 37.8 °F /  3.2 °C 31.5 °F /  -0.3 °C 30.39 in /  1029 hPa Calm     78 % 0.00 in /  0 mm 0 W/m2
22:48 37.8 °F /  3.2 °C 31.5 °F /  -0.3 °C 30.39 in /  1029 hPa Calm     78 % 0.00 in /  0 mm 0 W/m2
22:53 37.6 °F /  3.1 °C 31.7 °F /  -0.2 °C 30.39 in /  1029 hPa Calm     79 % 0.00 in /  0 mm 0 W/m2
22:58 37.4 °F /  3 °C 31.5 °F /  -0.3 °C 30.40 in /  1029.3 hPa Calm     79 % 0.00 in /  0 mm 0 W/m2
23:03 37.2 °F /  2.9 °C 31.3 °F /  -0.4 °C 30.40 in /  1029.3 hPa Calm   1.0 mph /  1.6 km/h 79 % 0.00 in /  0 mm 0 W/m2
23:08 37.0 °F /  2.8 °C 31.1 °F /  -0.5 °C 30.40 in /  1029.3 hPa Calm   1.0 mph /  1.6 km/h 79 % 0.00 in /  0 mm 0 W/m2
23:13 36.9 °F /  2.7 °C 31.0 °F /  -0.6 °C 30.40 in /  1029.3 hPa Calm     79 % 0.00 in /  0 mm 0 W/m2
23:18 36.9 °F /  2.7 °C 31.0 °F /  -0.6 °C 30.40 in /  1029.3 hPa Calm     79 % 0.00 in /  0 mm 0 W/m2
23:23 36.7 °F /  2.6 °C 30.8 °F /  -0.7 °C 30.40 in /  1029.3 hPa Calm     79 % 0.00 in /  0 mm 0 W/m2
23:28 36.5 °F /  2.5 °C 30.6 °F /  -0.8 °C 30.40 in /  1029.3 hPa Calm     79 % 0.00 in /  0 mm 0 W/m2
23:33 36.3 °F /  2.4 °C 30.7 °F /  -0.7 °C 30.40 in /  1029.3 hPa Calm     80 % 0.00 in /  0 mm 0 W/m2
23:38 36.1 °F /  2.3 °C 30.9 °F /  -0.6 °C 30.40 in /  1029.3 hPa Calm     81 % 0.00 in /  0 mm 0 W/m2
23:43 36.1 °F /  2.3 °C 30.9 °F /  -0.6 °C 30.40 in /  1029.3 hPa Calm     81 % 0.00 in /  0 mm 0 W/m2
23:48 36.0 °F /  2.2 °C 30.7 °F /  -0.7 °C 30.40 in /  1029.3 hPa Calm     81 % 0.00 in /  0 mm 0 W/m2
23:53 35.8 °F /  2.1 °C 30.5 °F /  -0.8 °C 30.40 in /  1029.3 hPa Calm     81 % 0.00 in /  0 mm 0 W/m2
23:58 35.6 °F /  2 °C 30.6 °F /  -0.8 °C 30.40 in /  1029.3 hPa Calm     82 % 0.00 in /  0 mm 0 W/m2
23:59 35.4 °F /  1.9 °C 30.5 °F /  -0.8 °C 30.40 in /  1029.3 hPa Calm     82 % 0.00 in /  0 mm 0 W/m2
Delerius-Weather
Compliments of Weather Underground - 2.25 mb

Data updates at regular intervals.